sensor_id;sensor_type;location;lat;lon;timestamp;temperature;humidity
15900;DHT22;8048;50.644;6.184;2023-10-13T00:00:21;16.50;99.90
15900;DHT22;8048;50.644;6.184;2023-10-13T00:02:58;16.50;99.90
15900;DHT22;8048;50.644;6.184;2023-10-13T00:05:27;16.50;99.90
15900;DHT22;8048;50.644;6.184;2023-10-13T00:07:53;16.50;99.90
15900;DHT22;8048;50.644;6.184;2023-10-13T00:10:18;16.50;99.90
15900;DHT22;8048;50.644;6.184;2023-10-13T00:12:44;16.50;99.90
15900;DHT22;8048;50.644;6.184;2023-10-13T00:15:17;16.50;99.90
15900;DHT22;8048;50.644;6.184;2023-10-13T00:17:43;16.60;99.90
15900;DHT22;8048;50.644;6.184;2023-10-13T00:20:09;16.70;99.90
15900;DHT22;8048;50.644;6.184;2023-10-13T00:23:00;16.70;99.90
15900;DHT22;8048;50.644;6.184;2023-10-13T00:25:27;16.70;99.90
15900;DHT22;8048;50.644;6.184;2023-10-13T00:27:57;16.60;99.90
15900;DHT22;8048;50.644;6.184;2023-10-13T00:30:23;16.60;99.90
15900;DHT22;8048;50.644;6.184;2023-10-13T00:32:59;16.60;99.90
15900;DHT22;8048;50.644;6.184;2023-10-13T00:35:28;16.60;99.90
15900;DHT22;8048;50.644;6.184;2023-10-13T00:37:57;16.60;99.90
15900;DHT22;8048;50.644;6.184;2023-10-13T00:40:29;16.60;99.90
15900;DHT22;8048;50.644;6.184;2023-10-13T00:42:54;16.70;99.90
15900;DHT22;8048;50.644;6.184;2023-10-13T00:45:22;16.70;99.90
15900;DHT22;8048;50.644;6.184;2023-10-13T00:47:49;16.60;99.90
15900;DHT22;8048;50.644;6.184;2023-10-13T00:50:16;16.70;99.90
15900;DHT22;8048;50.644;6.184;2023-10-13T00:52:44;16.70;99.90
15900;DHT22;8048;50.644;6.184;2023-10-13T00:55:13;16.70;99.90
15900;DHT22;8048;50.644;6.184;2023-10-13T00:57:40;16.70;99.90
15900;DHT22;8048;50.644;6.184;2023-10-13T01:00:07;16.70;99.90
15900;DHT22;8048;50.644;6.184;2023-10-13T01:02:45;16.70;99.90
15900;DHT22;8048;50.644;6.184;2023-10-13T01:05:20;16.70;99.90
15900;DHT22;8048;50.644;6.184;2023-10-13T01:07:46;16.80;99.90
15900;DHT22;8048;50.644;6.184;2023-10-13T01:10:18;16.70;99.90
15900;DHT22;8048;50.644;6.184;2023-10-13T01:12:45;16.70;99.90
15900;DHT22;8048;50.644;6.184;2023-10-13T01:15:11;16.70;99.90
15900;DHT22;8048;50.644;6.184;2023-10-13T01:17:41;16.70;99.90
15900;DHT22;8048;50.644;6.184;2023-10-13T01:20:14;16.70;99.90
15900;DHT22;8048;50.644;6.184;2023-10-13T01:22:50;16.70;99.90
15900;DHT22;8048;50.644;6.184;2023-10-13T01:25:24;16.70;99.90
15900;DHT22;8048;50.644;6.184;2023-10-13T01:27:53;16.70;99.90
15900;DHT22;8048;50.644;6.184;2023-10-13T01:30:19;16.90;99.90
15900;DHT22;8048;50.644;6.184;2023-10-13T01:32:52;16.80;99.90
15900;DHT22;8048;50.644;6.184;2023-10-13T01:35:19;16.80;99.90
15900;DHT22;8048;50.644;6.184;2023-10-13T01:37:51;16.90;99.90
15900;DHT22;8048;50.644;6.184;2023-10-13T01:40:17;16.90;99.90
15900;DHT22;8048;50.644;6.184;2023-10-13T01:42:46;16.90;99.90
15900;DHT22;8048;50.644;6.184;2023-10-13T01:45:12;16.80;99.90
15900;DHT22;8048;50.644;6.184;2023-10-13T01:47:39;16.90;99.90
15900;DHT22;8048;50.644;6.184;2023-10-13T01:50:06;16.90;99.90
15900;DHT22;8048;50.644;6.184;2023-10-13T01:52:46;16.90;99.90
15900;DHT22;8048;50.644;6.184;2023-10-13T01:55:13;16.80;99.90
15900;DHT22;8048;50.644;6.184;2023-10-13T01:57:40;16.90;99.90
15900;DHT22;8048;50.644;6.184;2023-10-13T02:00:08;16.80;99.90
15900;DHT22;8048;50.644;6.184;2023-10-13T02:02:44;16.90;99.90
15900;DHT22;8048;50.644;6.184;2023-10-13T02:05:11;16.90;99.90
15900;DHT22;8048;50.644;6.184;2023-10-13T02:07:37;16.90;99.90
15900;DHT22;8048;50.644;6.184;2023-10-13T02:10:04;16.90;99.90
15900;DHT22;8048;50.644;6.184;2023-10-13T02:12:31;16.90;99.90
15900;DHT22;8048;50.644;6.184;2023-10-13T02:15:10;17.00;99.90
15900;DHT22;8048;50.644;6.184;2023-10-13T02:17:46;17.00;99.90
15900;DHT22;8048;50.644;6.184;2023-10-13T02:20:17;17.00;99.90
15900;DHT22;8048;50.644;6.184;2023-10-13T02:22:55;17.00;99.90
15900;DHT22;8048;50.644;6.184;2023-10-13T02:25:21;17.00;99.90
15900;DHT22;8048;50.644;6.184;2023-10-13T02:28:09;17.00;99.90
15900;DHT22;8048;50.644;6.184;2023-10-13T02:30:43;17.00;99.90
15900;DHT22;8048;50.644;6.184;2023-10-13T02:33:14;17.00;99.90
15900;DHT22;8048;50.644;6.184;2023-10-13T02:35:46;17.00;99.90
15900;DHT22;8048;50.644;6.184;2023-10-13T02:38:22;17.00;99.90
15900;DHT22;8048;50.644;6.184;2023-10-13T02:40:58;17.00;99.90
15900;DHT22;8048;50.644;6.184;2023-10-13T02:43:34;16.90;99.90
15900;DHT22;8048;50.644;6.184;2023-10-13T02:46:00;17.00;99.90
15900;DHT22;8048;50.644;6.184;2023-10-13T02:48:26;17.00;99.90
15900;DHT22;8048;50.644;6.184;2023-10-13T02:50:58;17.10;99.90
15900;DHT22;8048;50.644;6.184;2023-10-13T02:53:27;17.10;99.90
15900;DHT22;8048;50.644;6.184;2023-10-13T02:55:54;17.00;99.90
15900;DHT22;8048;50.644;6.184;2023-10-13T02:58:29;17.00;99.90
15900;DHT22;8048;50.644;6.184;2023-10-13T03:01:05;17.00;99.90
15900;DHT22;8048;50.644;6.184;2023-10-13T03:03:42;17.00;99.90
15900;DHT22;8048;50.644;6.184;2023-10-13T03:06:08;17.00;99.90
15900;DHT22;8048;50.644;6.184;2023-10-13T03:08:37;17.10;99.90
15900;DHT22;8048;50.644;6.184;2023-10-13T03:11:03;17.10;99.90
15900;DHT22;8048;50.644;6.184;2023-10-13T03:13:31;17.10;99.90
15900;DHT22;8048;50.644;6.184;2023-10-13T03:15:59;17.10;99.90
15900;DHT22;8048;50.644;6.184;2023-10-13T03:18:24;17.10;99.90
15900;DHT22;8048;50.644;6.184;2023-10-13T03:20:50;17.00;99.90
15900;DHT22;8048;50.644;6.184;2023-10-13T03:23:21;17.10;99.90
15900;DHT22;8048;50.644;6.184;2023-10-13T03:25:47;17.10;99.90
15900;DHT22;8048;50.644;6.184;2023-10-13T03:28:15;17.10;99.90
15900;DHT22;8048;50.644;6.184;2023-10-13T03:30:43;17.10;99.90
15900;DHT22;8048;50.644;6.184;2023-10-13T03:33:10;17.10;99.90
15900;DHT22;8048;50.644;6.184;2023-10-13T03:35:38;17.10;99.90
15900;DHT22;8048;50.644;6.184;2023-10-13T03:38:04;17.20;99.90
15900;DHT22;8048;50.644;6.184;2023-10-13T03:40:29;17.10;99.90
15900;DHT22;8048;50.644;6.184;2023-10-13T03:42:57;17.10;99.90
15900;DHT22;8048;50.644;6.184;2023-10-13T03:45:26;17.10;99.90
15900;DHT22;8048;50.644;6.184;2023-10-13T03:47:52;17.10;99.90
15900;DHT22;8048;50.644;6.184;2023-10-13T03:50:21;17.10;99.90
15900;DHT22;8048;50.644;6.184;2023-10-13T03:52:57;17.10;99.90
15900;DHT22;8048;50.644;6.184;2023-10-13T03:55:26;17.20;99.90
15900;DHT22;8048;50.644;6.184;2023-10-13T03:57:55;17.10;99.90
15900;DHT22;8048;50.644;6.184;2023-10-13T04:00:22;17.20;99.90
15900;DHT22;8048;50.644;6.184;2023-10-13T04:02:53;17.20;99.90
15900;DHT22;8048;50.644;6.184;2023-10-13T04:05:31;17.20;99.90
15900;DHT22;8048;50.644;6.184;2023-10-13T04:08:08;17.20;99.90
15900;DHT22;8048;50.644;6.184;2023-10-13T04:10:53;17.10;99.90
15900;DHT22;8048;50.644;6.184;2023-10-13T04:13:20;17.20;99.90
15900;DHT22;8048;50.644;6.184;2023-10-13T04:16:06;17.20;99.90
15900;DHT22;8048;50.644;6.184;2023-10-13T04:18:48;17.20;99.90
15900;DHT22;8048;50.644;6.184;2023-10-13T04:21:23;17.20;99.90
15900;DHT22;8048;50.644;6.184;2023-10-13T04:24:07;17.30;99.90
15900;DHT22;8048;50.644;6.184;2023-10-13T04:26:52;17.30;99.90
15900;DHT22;8048;50.644;6.184;2023-10-13T04:29:37;17.20;99.90
15900;DHT22;8048;50.644;6.184;2023-10-13T04:32:36;17.20;99.90
15900;DHT22;8048;50.644;6.184;2023-10-13T04:35:07;17.30;99.90
15900;DHT22;8048;50.644;6.184;2023-10-13T04:37:38;17.30;99.90
15900;DHT22;8048;50.644;6.184;2023-10-13T04:40:20;17.40;99.90
15900;DHT22;8048;50.644;6.184;2023-10-13T04:42:51;17.40;99.90
15900;DHT22;8048;50.644;6.184;2023-10-13T04:45:20;17.40;99.90
15900;DHT22;8048;50.644;6.184;2023-10-13T04:48:04;17.40;99.90
15900;DHT22;8048;50.644;6.184;2023-10-13T04:50:40;17.40;99.90
15900;DHT22;8048;50.644;6.184;2023-10-13T04:53:16;17.50;99.90
15900;DHT22;8048;50.644;6.184;2023-10-13T04:56:20;17.50;99.90
15900;DHT22;8048;50.644;6.184;2023-10-13T04:59:04;17.50;99.90
15900;DHT22;8048;50.644;6.184;2023-10-13T05:02:01;17.50;99.90
15900;DHT22;8048;50.644;6.184;2023-10-13T05:04:46;17.40;99.90
15900;DHT22;8048;50.644;6.184;2023-10-13T05:07:30;17.50;99.90
15900;DHT22;8048;50.644;6.184;2023-10-13T05:10:14;17.50;99.90
15900;DHT22;8048;50.644;6.184;2023-10-13T05:12:58;17.50;99.90
15900;DHT22;8048;50.644;6.184;2023-10-13T05:15:52;17.50;99.90
15900;DHT22;8048;50.644;6.184;2023-10-13T05:18:37;17.50;99.90
15900;DHT22;8048;50.644;6.184;2023-10-13T05:21:21;17.60;99.90
15900;DHT22;8048;50.644;6.184;2023-10-13T05:24:06;17.60;99.90
15900;DHT22;8048;50.644;6.184;2023-10-13T05:26:51;17.50;99.90
15900;DHT22;8048;50.644;6.184;2023-10-13T05:29:40;17.50;99.90
15900;DHT22;8048;50.644;6.184;2023-10-13T05:32:25;17.50;99.90
15900;DHT22;8048;50.644;6.184;2023-10-13T05:35:10;17.50;99.90
15900;DHT22;8048;50.644;6.184;2023-10-13T05:37:54;17.50;99.90
15900;DHT22;8048;50.644;6.184;2023-10-13T05:40:38;17.50;99.90
15900;DHT22;8048;50.644;6.184;2023-10-13T05:43:22;17.50;99.90
15900;DHT22;8048;50.644;6.184;2023-10-13T05:46:06;17.50;99.90
15900;DHT22;8048;50.644;6.184;2023-10-13T05:48:50;17.50;99.90
15900;DHT22;8048;50.644;6.184;2023-10-13T05:51:25;17.50;99.90
15900;DHT22;8048;50.644;6.184;2023-10-13T05:54:01;17.50;99.90
15900;DHT22;8048;50.644;6.184;2023-10-13T05:59:23;17.50;99.90
15900;DHT22;8048;50.644;6.184;2023-10-13T06:02:07;17.60;99.90
15900;DHT22;8048;50.644;6.184;2023-10-13T06:04:51;17.60;99.90
15900;DHT22;8048;50.644;6.184;2023-10-13T06:07:35;17.60;99.90
15900;DHT22;8048;50.644;6.184;2023-10-13T06:10:19;17.60;99.90
15900;DHT22;8048;50.644;6.184;2023-10-13T06:13:03;17.60;99.90
15900;DHT22;8048;50.644;6.184;2023-10-13T06:15:47;17.50;99.90
15900;DHT22;8048;50.644;6.184;2023-10-13T06:18:31;17.60;99.90
15900;DHT22;8048;50.644;6.184;2023-10-13T06:21:15;17.50;99.90
15900;DHT22;8048;50.644;6.184;2023-10-13T06:23:59;17.60;99.90
15900;DHT22;8048;50.644;6.184;2023-10-13T06:26:44;17.60;99.90
15900;DHT22;8048;50.644;6.184;2023-10-13T06:29:31;17.60;99.90
15900;DHT22;8048;50.644;6.184;2023-10-13T06:31:57;17.60;99.90
15900;DHT22;8048;50.644;6.184;2023-10-13T06:34:23;17.60;99.90
15900;DHT22;8048;50.644;6.184;2023-10-13T06:37:04;17.60;99.90
15900;DHT22;8048;50.644;6.184;2023-10-13T06:39:47;17.60;99.90
15900;DHT22;8048;50.644;6.184;2023-10-13T06:42:13;17.70;99.90
15900;DHT22;8048;50.644;6.184;2023-10-13T06:44:38;17.70;99.90
15900;DHT22;8048;50.644;6.184;2023-10-13T06:47:05;17.70;99.90
15900;DHT22;8048;50.644;6.184;2023-10-13T06:49:30;17.70;99.90
15900;DHT22;8048;50.644;6.184;2023-10-13T06:52:04;17.70;99.90
15900;DHT22;8048;50.644;6.184;2023-10-13T06:54:34;17.70;99.90
15900;DHT22;8048;50.644;6.184;2023-10-13T06:57:00;17.80;99.90
15900;DHT22;8048;50.644;6.184;2023-10-13T06:59:29;17.80;99.90
15900;DHT22;8048;50.644;6.184;2023-10-13T07:01:58;17.90;99.90
15900;DHT22;8048;50.644;6.184;2023-10-13T07:04:29;17.90;99.90
15900;DHT22;8048;50.644;6.184;2023-10-13T07:06:55;17.90;99.90
15900;DHT22;8048;50.644;6.184;2023-10-13T07:09:21;17.90;99.90
15900;DHT22;8048;50.644;6.184;2023-10-13T07:12:00;17.90;99.90
15900;DHT22;8048;50.644;6.184;2023-10-13T07:14:29;17.90;99.90
15900;DHT22;8048;50.644;6.184;2023-10-13T07:17:03;17.80;99.90
15900;DHT22;8048;50.644;6.184;2023-10-13T07:19:30;17.80;99.90
15900;DHT22;8048;50.644;6.184;2023-10-13T07:21:59;17.90;99.90
15900;DHT22;8048;50.644;6.184;2023-10-13T07:24:45;17.80;99.90
15900;DHT22;8048;50.644;6.184;2023-10-13T07:27:15;17.90;99.90
15900;DHT22;8048;50.644;6.184;2023-10-13T07:29:48;18.00;99.90
15900;DHT22;8048;50.644;6.184;2023-10-13T07:32:21;18.10;99.90
15900;DHT22;8048;50.644;6.184;2023-10-13T07:34:49;18.10;99.90
15900;DHT22;8048;50.644;6.184;2023-10-13T07:37:16;18.10;99.90
15900;DHT22;8048;50.644;6.184;2023-10-13T07:39:41;18.10;99.90
15900;DHT22;8048;50.644;6.184;2023-10-13T07:42:08;18.10;99.90
15900;DHT22;8048;50.644;6.184;2023-10-13T07:44:45;18.20;99.90
15900;DHT22;8048;50.644;6.184;2023-10-13T07:47:13;18.20;99.90
15900;DHT22;8048;50.644;6.184;2023-10-13T07:49:40;18.20;99.90
15900;DHT22;8048;50.644;6.184;2023-10-13T07:52:08;18.10;99.90
15900;DHT22;8048;50.644;6.184;2023-10-13T07:54:52;18.10;99.90
15900;DHT22;8048;50.644;6.184;2023-10-13T07:57:37;18.10;99.90
15900;DHT22;8048;50.644;6.184;2023-10-13T08:00:19;18.00;99.90
15900;DHT22;8048;50.644;6.184;2023-10-13T08:03:03;18.00;99.90
15900;DHT22;8048;50.644;6.184;2023-10-13T08:05:41;18.00;99.90
15900;DHT22;8048;50.644;6.184;2023-10-13T08:08:26;18.00;99.90
15900;DHT22;8048;50.644;6.184;2023-10-13T08:10:57;18.00;99.90
15900;DHT22;8048;50.644;6.184;2023-10-13T08:13:28;18.00;99.90
15900;DHT22;8048;50.644;6.184;2023-10-13T08:15:54;18.00;99.90
15900;DHT22;8048;50.644;6.184;2023-10-13T08:18:19;18.00;99.90
15900;DHT22;8048;50.644;6.184;2023-10-13T08:21:05;18.00;99.90
15900;DHT22;8048;50.644;6.184;2023-10-13T08:23:32;18.00;99.90
15900;DHT22;8048;50.644;6.184;2023-10-13T08:26:26;18.10;99.90
15900;DHT22;8048;50.644;6.184;2023-10-13T08:29:02;18.20;99.90
15900;DHT22;8048;50.644;6.184;2023-10-13T08:31:52;18.30;99.90
15900;DHT22;8048;50.644;6.184;2023-10-13T08:34:30;18.30;99.90
15900;DHT22;8048;50.644;6.184;2023-10-13T08:37:08;18.40;99.90
15900;DHT22;8048;50.644;6.184;2023-10-13T08:39:58;18.50;99.90
15900;DHT22;8048;50.644;6.184;2023-10-13T08:42:32;18.50;99.90
15900;DHT22;8048;50.644;6.184;2023-10-13T08:45:10;18.50;99.90
15900;DHT22;8048;50.644;6.184;2023-10-13T08:48:12;18.40;99.90
15900;DHT22;8048;50.644;6.184;2023-10-13T08:50:48;18.40;99.90
15900;DHT22;8048;50.644;6.184;2023-10-13T08:53:21;18.40;99.90
15900;DHT22;8048;50.644;6.184;2023-10-13T08:56:07;18.50;99.90
15900;DHT22;8048;50.644;6.184;2023-10-13T08:58:51;18.60;99.90
15900;DHT22;8048;50.644;6.184;2023-10-13T09:01:27;18.80;99.90
15900;DHT22;8048;50.644;6.184;2023-10-13T09:04:09;18.80;99.90
15900;DHT22;8048;50.644;6.184;2023-10-13T09:06:51;19.10;99.90
15900;DHT22;8048;50.644;6.184;2023-10-13T09:09:29;19.30;99.90
15900;DHT22;8048;50.644;6.184;2023-10-13T09:12:12;19.60;99.90
15900;DHT22;8048;50.644;6.184;2023-10-13T09:14:40;19.70;99.90
15900;DHT22;8048;50.644;6.184;2023-10-13T09:17:11;19.60;99.90
15900;DHT22;8048;50.644;6.184;2023-10-13T09:19:55;19.60;99.90
15900;DHT22;8048;50.644;6.184;2023-10-13T09:22:25;19.50;99.90
15900;DHT22;8048;50.644;6.184;2023-10-13T09:24:57;19.50;99.90
15900;DHT22;8048;50.644;6.184;2023-10-13T09:27:27;19.50;99.90
15900;DHT22;8048;50.644;6.184;2023-10-13T09:29:57;19.50;99.90
15900;DHT22;8048;50.644;6.184;2023-10-13T09:32:26;19.70;99.90
15900;DHT22;8048;50.644;6.184;2023-10-13T09:35:00;20.10;99.90
15900;DHT22;8048;50.644;6.184;2023-10-13T09:37:26;20.50;99.90
15900;DHT22;8048;50.644;6.184;2023-10-13T09:39:53;20.70;99.90
15900;DHT22;8048;50.644;6.184;2023-10-13T09:42:22;21.00;99.90
15900;DHT22;8048;50.644;6.184;2023-10-13T09:44:51;21.20;99.90
15900;DHT22;8048;50.644;6.184;2023-10-13T09:47:22;21.40;99.70
15900;DHT22;8048;50.644;6.184;2023-10-13T09:50:02;21.60;99.30
15900;DHT22;8048;50.644;6.184;2023-10-13T09:52:31;21.80;98.60
15900;DHT22;8048;50.644;6.184;2023-10-13T09:55:11;22.00;98.90
15900;DHT22;8048;50.644;6.184;2023-10-13T09:57:43;22.30;97.70
15900;DHT22;8048;50.644;6.184;2023-10-13T10:00:17;22.40;97.50
15900;DHT22;8048;50.644;6.184;2023-10-13T10:03:12;22.30;97.10
15900;DHT22;8048;50.644;6.184;2023-10-13T10:06:23;22.50;96.60
15900;DHT22;8048;50.644;6.184;2023-10-13T10:09:08;22.90;97.30
15900;DHT22;8048;50.644;6.184;2023-10-13T10:14:18;23.60;96.00
15900;DHT22;8048;50.644;6.184;2023-10-13T10:17:07;23.70;95.60
15900;DHT22;8048;50.644;6.184;2023-10-13T10:19:44;23.60;95.10
15900;DHT22;8048;50.644;6.184;2023-10-13T10:22:10;23.70;94.80
15900;DHT22;8048;50.644;6.184;2023-10-13T10:24:42;23.70;94.40
15900;DHT22;8048;50.644;6.184;2023-10-13T10:27:09;23.70;94.80
15900;DHT22;8048;50.644;6.184;2023-10-13T10:29:40;24.30;94.20
15900;DHT22;8048;50.644;6.184;2023-10-13T10:32:15;24.20;93.50
15900;DHT22;8048;50.644;6.184;2023-10-13T10:34:41;24.30;93.70
15900;DHT22;8048;50.644;6.184;2023-10-13T10:37:07;24.40;93.20
15900;DHT22;8048;50.644;6.184;2023-10-13T10:39:35;24.90;92.90
15900;DHT22;8048;50.644;6.184;2023-10-13T10:42:14;25.20;92.40
15900;DHT22;8048;50.644;6.184;2023-10-13T10:44:57;24.90;92.40
15900;DHT22;8048;50.644;6.184;2023-10-13T10:47:31;24.40;92.60
15900;DHT22;8048;50.644;6.184;2023-10-13T10:50:00;24.30;93.20
15900;DHT22;8048;50.644;6.184;2023-10-13T10:52:33;24.20;93.30
15900;DHT22;8048;50.644;6.184;2023-10-13T10:55:03;24.20;93.20
15900;DHT22;8048;50.644;6.184;2023-10-13T10:57:33;24.10;92.50
15900;DHT22;8048;50.644;6.184;2023-10-13T11:00:03;23.90;93.70
15900;DHT22;8048;50.644;6.184;2023-10-13T11:02:37;23.70;93.50
15900;DHT22;8048;50.644;6.184;2023-10-13T11:05:03;23.50;93.10
15900;DHT22;8048;50.644;6.184;2023-10-13T11:07:31;23.40;92.70
15900;DHT22;8048;50.644;6.184;2023-10-13T11:10:10;23.10;93.10
15900;DHT22;8048;50.644;6.184;2023-10-13T11:12:56;22.90;93.30
15900;DHT22;8048;50.644;6.184;2023-10-13T11:15:22;22.70;93.10
15900;DHT22;8048;50.644;6.184;2023-10-13T11:17:51;22.60;93.50
15900;DHT22;8048;50.644;6.184;2023-10-13T11:20:20;22.50;93.80
15900;DHT22;8048;50.644;6.184;2023-10-13T11:23:13;22.40;93.80
15900;DHT22;8048;50.644;6.184;2023-10-13T11:25:39;22.30;94.30
15900;DHT22;8048;50.644;6.184;2023-10-13T11:28:12;22.30;94.20
15900;DHT22;8048;50.644;6.184;2023-10-13T11:30:49;22.20;94.00
15900;DHT22;8048;50.644;6.184;2023-10-13T11:33:18;22.10;94.30
15900;DHT22;8048;50.644;6.184;2023-10-13T11:35:46;22.00;93.80
15900;DHT22;8048;50.644;6.184;2023-10-13T11:38:21;21.80;93.80
15900;DHT22;8048;50.644;6.184;2023-10-13T11:40:57;21.80;94.00
15900;DHT22;8048;50.644;6.184;2023-10-13T11:43:34;21.70;94.40
15900;DHT22;8048;50.644;6.184;2023-10-13T11:46:19;21.60;94.60
15900;DHT22;8048;50.644;6.184;2023-10-13T11:49:04;21.50;94.30
15900;DHT22;8048;50.644;6.184;2023-10-13T11:51:48;21.40;94.50
15900;DHT22;8048;50.644;6.184;2023-10-13T11:54:19;21.50;94.60
15900;DHT22;8048;50.644;6.184;2023-10-13T11:56:45;21.50;94.10
15900;DHT22;8048;50.644;6.184;2023-10-13T11:59:11;21.40;94.10
15900;DHT22;8048;50.644;6.184;2023-10-13T12:01:52;21.30;93.90
15900;DHT22;8048;50.644;6.184;2023-10-13T12:04:36;21.30;94.30
15900;DHT22;8048;50.644;6.184;2023-10-13T12:07:22;21.20;94.60
15900;DHT22;8048;50.644;6.184;2023-10-13T12:10:07;21.10;94.30
15900;DHT22;8048;50.644;6.184;2023-10-13T12:12:40;21.00;94.20
15900;DHT22;8048;50.644;6.184;2023-10-13T12:15:08;21.10;94.10
15900;DHT22;8048;50.644;6.184;2023-10-13T12:17:35;21.00;93.90
15900;DHT22;8048;50.644;6.184;2023-10-13T12:20:02;20.90;94.00
15900;DHT22;8048;50.644;6.184;2023-10-13T12:22:31;20.90;94.80
15900;DHT22;8048;50.644;6.184;2023-10-13T12:25:16;20.90;94.60
15900;DHT22;8048;50.644;6.184;2023-10-13T12:27:54;20.90;93.80
15900;DHT22;8048;50.644;6.184;2023-10-13T12:30:26;20.80;94.30
15900;DHT22;8048;50.644;6.184;2023-10-13T12:33:10;20.90;94.20
15900;DHT22;8048;50.644;6.184;2023-10-13T12:35:38;20.80;94.10
15900;DHT22;8048;50.644;6.184;2023-10-13T12:38:24;20.80;94.10
15900;DHT22;8048;50.644;6.184;2023-10-13T12:41:22;20.80;94.50
15900;DHT22;8048;50.644;6.184;2023-10-13T12:44:06;20.70;94.50
15900;DHT22;8048;50.644;6.184;2023-10-13T12:46:51;20.60;95.10
15900;DHT22;8048;50.644;6.184;2023-10-13T12:49:36;20.50;95.10
15900;DHT22;8048;50.644;6.184;2023-10-13T12:52:15;20.50;94.90
15900;DHT22;8048;50.644;6.184;2023-10-13T12:54:59;20.50;94.70
15900;DHT22;8048;50.644;6.184;2023-10-13T12:57:32;20.50;94.60
15900;DHT22;8048;50.644;6.184;2023-10-13T12:59:58;20.40;94.90
15900;DHT22;8048;50.644;6.184;2023-10-13T13:02:24;20.40;95.10
15900;DHT22;8048;50.644;6.184;2023-10-13T13:04:51;20.40;95.30
15900;DHT22;8048;50.644;6.184;2023-10-13T13:07:21;20.40;95.40
15900;DHT22;8048;50.644;6.184;2023-10-13T13:09:47;20.40;95.10
15900;DHT22;8048;50.644;6.184;2023-10-13T13:12:13;20.40;95.00
15900;DHT22;8048;50.644;6.184;2023-10-13T13:14:39;20.40;94.50
15900;DHT22;8048;50.644;6.184;2023-10-13T13:17:12;20.40;95.00
15900;DHT22;8048;50.644;6.184;2023-10-13T13:19:37;20.50;95.10
15900;DHT22;8048;50.644;6.184;2023-10-13T13:22:07;20.50;95.00
15900;DHT22;8048;50.644;6.184;2023-10-13T13:24:43;20.50;95.40
15900;DHT22;8048;50.644;6.184;2023-10-13T13:27:12;20.50;95.10
15900;DHT22;8048;50.644;6.184;2023-10-13T13:29:46;20.60;94.70
15900;DHT22;8048;50.644;6.184;2023-10-13T13:32:12;20.50;94.70
15900;DHT22;8048;50.644;6.184;2023-10-13T13:35:04;20.60;94.40
15900;DHT22;8048;50.644;6.184;2023-10-13T13:37:31;20.80;94.90
15900;DHT22;8048;50.644;6.184;2023-10-13T13:39:57;20.90;93.80
15900;DHT22;8048;50.644;6.184;2023-10-13T13:42:39;20.90;93.90
15900;DHT22;8048;50.644;6.184;2023-10-13T13:45:11;21.00;94.20
15900;DHT22;8048;50.644;6.184;2023-10-13T13:47:36;21.10;93.70
15900;DHT22;8048;50.644;6.184;2023-10-13T13:50:02;21.10;94.00
15900;DHT22;8048;50.644;6.184;2023-10-13T13:52:32;21.00;93.60
15900;DHT22;8048;50.644;6.184;2023-10-13T13:55:11;20.90;93.70
15900;DHT22;8048;50.644;6.184;2023-10-13T13:57:43;20.90;93.70
15900;DHT22;8048;50.644;6.184;2023-10-13T14:00:10;20.90;93.60
15900;DHT22;8048;50.644;6.184;2023-10-13T14:02:42;20.90;94.00
15900;DHT22;8048;50.644;6.184;2023-10-13T14:05:15;20.90;93.40
15900;DHT22;8048;50.644;6.184;2023-10-13T14:07:42;20.90;93.50
15900;DHT22;8048;50.644;6.184;2023-10-13T14:10:08;20.90;93.50
15900;DHT22;8048;50.644;6.184;2023-10-13T14:12:44;20.90;93.50
15900;DHT22;8048;50.644;6.184;2023-10-13T14:15:10;20.80;94.00
15900;DHT22;8048;50.644;6.184;2023-10-13T14:17:50;20.70;93.50
15900;DHT22;8048;50.644;6.184;2023-10-13T14:20:16;20.70;93.50
15900;DHT22;8048;50.644;6.184;2023-10-13T14:22:44;20.60;93.90
15900;DHT22;8048;50.644;6.184;2023-10-13T14:25:13;20.50;93.90
15900;DHT22;8048;50.644;6.184;2023-10-13T14:27:43;20.40;94.20
15900;DHT22;8048;50.644;6.184;2023-10-13T14:30:08;20.40;93.60
15900;DHT22;8048;50.644;6.184;2023-10-13T14:32:34;20.40;94.10
15900;DHT22;8048;50.644;6.184;2023-10-13T14:35:06;20.40;94.10
15900;DHT22;8048;50.644;6.184;2023-10-13T14:37:40;20.30;94.10
15900;DHT22;8048;50.644;6.184;2023-10-13T14:40:06;20.20;93.80
15900;DHT22;8048;50.644;6.184;2023-10-13T14:42:37;20.20;93.50
15900;DHT22;8048;50.644;6.184;2023-10-13T14:45:06;20.20;93.70
15900;DHT22;8048;50.644;6.184;2023-10-13T14:47:37;20.20;93.60
15900;DHT22;8048;50.644;6.184;2023-10-13T14:50:05;20.20;93.90
15900;DHT22;8048;50.644;6.184;2023-10-13T14:52:30;20.10;93.40
15900;DHT22;8048;50.644;6.184;2023-10-13T14:54:59;20.20;94.40
15900;DHT22;8048;50.644;6.184;2023-10-13T14:57:24;20.20;93.70
15900;DHT22;8048;50.644;6.184;2023-10-13T14:59:54;20.10;93.70
15900;DHT22;8048;50.644;6.184;2023-10-13T15:02:21;20.10;93.70
15900;DHT22;8048;50.644;6.184;2023-10-13T15:04:47;20.10;93.60
15900;DHT22;8048;50.644;6.184;2023-10-13T15:07:16;20.10;93.70
15900;DHT22;8048;50.644;6.184;2023-10-13T15:09:47;20.10;93.90
15900;DHT22;8048;50.644;6.184;2023-10-13T15:12:13;20.00;94.30
15900;DHT22;8048;50.644;6.184;2023-10-13T15:14:39;19.90;94.70
15900;DHT22;8048;50.644;6.184;2023-10-13T15:17:11;19.90;94.90
15900;DHT22;8048;50.644;6.184;2023-10-13T15:19:36;19.90;95.40
15900;DHT22;8048;50.644;6.184;2023-10-13T15:22:04;19.80;95.00
15900;DHT22;8048;50.644;6.184;2023-10-13T15:24:32;19.80;95.30
15900;DHT22;8048;50.644;6.184;2023-10-13T15:27:01;19.80;95.70
15900;DHT22;8048;50.644;6.184;2023-10-13T15:29:27;19.80;94.90
15900;DHT22;8048;50.644;6.184;2023-10-13T15:32:00;19.80;94.70
15900;DHT22;8048;50.644;6.184;2023-10-13T15:34:29;19.80;94.60
15900;DHT22;8048;50.644;6.184;2023-10-13T15:36:56;19.80;94.80
15900;DHT22;8048;50.644;6.184;2023-10-13T15:39:22;19.80;95.00
15900;DHT22;8048;50.644;6.184;2023-10-13T15:41:55;19.80;95.20
15900;DHT22;8048;50.644;6.184;2023-10-13T15:44:27;19.70;95.40
15900;DHT22;8048;50.644;6.184;2023-10-13T15:46:57;19.60;95.60
15900;DHT22;8048;50.644;6.184;2023-10-13T15:49:23;19.60;95.30
15900;DHT22;8048;50.644;6.184;2023-10-13T15:51:49;19.60;95.60
15900;DHT22;8048;50.644;6.184;2023-10-13T15:54:16;19.70;95.60
15900;DHT22;8048;50.644;6.184;2023-10-13T15:56:45;19.60;95.80
15900;DHT22;8048;50.644;6.184;2023-10-13T15:59:12;19.60;95.90
15900;DHT22;8048;50.644;6.184;2023-10-13T16:01:38;19.60;95.70
15900;DHT22;8048;50.644;6.184;2023-10-13T16:04:07;19.60;95.40
15900;DHT22;8048;50.644;6.184;2023-10-13T16:06:46;19.60;95.80
15900;DHT22;8048;50.644;6.184;2023-10-13T16:09:12;19.60;95.80
15900;DHT22;8048;50.644;6.184;2023-10-13T16:11:43;19.60;95.90
15900;DHT22;8048;50.644;6.184;2023-10-13T16:14:09;19.60;95.80
15900;DHT22;8048;50.644;6.184;2023-10-13T16:16:36;19.60;95.80
15900;DHT22;8048;50.644;6.184;2023-10-13T16:19:02;19.60;95.80
15900;DHT22;8048;50.644;6.184;2023-10-13T16:21:32;19.60;95.80
15900;DHT22;8048;50.644;6.184;2023-10-13T16:24:05;19.60;96.20
15900;DHT22;8048;50.644;6.184;2023-10-13T16:26:30;19.50;96.50
15900;DHT22;8048;50.644;6.184;2023-10-13T16:28:56;19.50;96.40